createdAt,value
2023-01-07T00:00:14.637Z,7.20
2023-01-07T00:05:43.990Z,7.50
2023-01-07T00:10:51.682Z,9.00
2023-01-07T00:16:02.396Z,10.40
2023-01-07T00:21:12.334Z,8.30
2023-01-07T00:26:21.101Z,10.20
2023-01-07T00:31:30.357Z,9.70
2023-01-07T00:36:40.089Z,10.10
2023-01-07T00:42:01.600Z,10.30
2023-01-07T00:47:08.897Z,11.70
2023-01-07T00:52:16.041Z,10.60
2023-01-07T00:57:23.310Z,10.90
2023-01-07T01:02:30.481Z,10.80
2023-01-07T01:07:38.136Z,14.90
2023-01-07T01:12:45.850Z,15.40
2023-01-07T01:17:53.791Z,15.50
2023-01-07T01:23:00.804Z,18.50
2023-01-07T01:28:08.420Z,20.80
2023-01-07T01:33:15.458Z,21.30
2023-01-07T01:38:23.263Z,18.60
2023-01-07T01:43:34.036Z,18.10
2023-01-07T01:48:46.511Z,17.10
2023-01-07T01:53:55.430Z,19.40
2023-01-07T01:59:05.518Z,22.20
2023-01-07T02:04:24.137Z,26.00
2023-01-07T02:09:31.431Z,18.40
2023-01-07T02:14:50.960Z,18.70
2023-01-07T02:20:18.625Z,21.50
2023-01-07T02:25:47.251Z,19.70
2023-01-07T02:31:14.562Z,19.90
2023-01-07T02:36:32.398Z,19.70
2023-01-07T02:41:52.417Z,18.90
2023-01-07T02:47:07.052Z,17.20
2023-01-07T02:52:23.832Z,16.80
2023-01-07T02:58:20.948Z,18.40
2023-01-07T03:03:54.925Z,17.90
2023-01-07T03:09:11.712Z,16.30
2023-01-07T03:14:22.199Z,15.90
2023-01-07T03:19:33.298Z,16.30
2023-01-07T03:24:41.841Z,17.30
2023-01-07T03:29:50.649Z,17.70
2023-01-07T03:34:57.974Z,17.50
2023-01-07T03:40:11.187Z,16.50
2023-01-07T03:45:21.285Z,17.00
2023-01-07T03:50:28.638Z,17.20
2023-01-07T03:55:36.045Z,15.20
2023-01-07T04:00:44.243Z,16.30
2023-01-07T04:05:55.144Z,13.90
2023-01-07T04:11:03.894Z,16.10
2023-01-07T04:16:11.637Z,17.20
2023-01-07T04:21:18.807Z,20.70
2023-01-07T04:26:25.823Z,19.70
2023-01-07T04:31:33.181Z,21.10
2023-01-07T04:36:40.434Z,17.00
2023-01-07T04:41:47.588Z,17.80
2023-01-07T04:46:54.838Z,19.50
2023-01-07T04:52:01.929Z,18.20
2023-01-07T04:57:10.478Z,20.20
2023-01-07T05:02:18.286Z,23.00
2023-01-07T05:07:25.815Z,26.80
2023-01-07T05:12:36.279Z,28.80
2023-01-07T05:17:44.272Z,22.90
2023-01-07T05:22:51.411Z,21.70
2023-01-07T05:27:59.005Z,21.60
2023-01-07T05:33:07.491Z,23.10
2023-01-07T05:38:14.826Z,22.70
2023-01-07T05:43:22.952Z,25.70
2023-01-07T05:48:30.373Z,23.90
2023-01-07T05:53:37.618Z,24.80
2023-01-07T05:58:44.676Z,24.70
2023-01-07T06:03:52.383Z,26.90
2023-01-07T06:08:59.463Z,27.20
2023-01-07T06:14:06.481Z,27.00
2023-01-07T06:19:15.025Z,28.40
2023-01-07T06:24:22.100Z,29.30
2023-01-07T06:29:29.100Z,29.40
2023-01-07T06:34:36.136Z,28.20
2023-01-07T06:39:43.535Z,27.10
2023-01-07T06:44:50.434Z,28.90
2023-01-07T06:49:57.526Z,32.70
2023-01-07T06:55:04.569Z,35.20
2023-01-07T07:00:13.680Z,37.20
2023-01-07T07:05:20.743Z,33.90
2023-01-07T07:10:27.685Z,34.20
2023-01-07T07:15:34.705Z,34.80
2023-01-07T07:20:41.644Z,37.30
2023-01-07T07:25:48.501Z,36.90
2023-01-07T07:30:55.661Z,37.00
2023-01-07T07:36:02.976Z,36.30
2023-01-07T07:41:10.075Z,36.10
2023-01-07T07:46:17.071Z,38.10
2023-01-07T07:51:24.755Z,36.60
2023-01-07T07:56:32.911Z,38.80
2023-01-07T08:01:40.029Z,36.90
2023-01-07T08:06:47.381Z,43.10
2023-01-07T08:11:54.312Z,47.40
2023-01-07T08:17:01.294Z,48.00
2023-01-07T08:22:08.331Z,49.30
2023-01-07T08:27:17.292Z,47.10
2023-01-07T08:32:24.931Z,48.70
2023-01-07T08:37:33.316Z,54.90
2023-01-07T08:42:41.149Z,50.80
2023-01-07T08:47:49.894Z,47.40
2023-01-07T08:52:57.257Z,44.00
2023-01-07T08:58:04.148Z,40.10
2023-01-07T09:03:11.227Z,40.70
2023-01-07T09:08:18.228Z,40.30
2023-01-07T09:13:26.797Z,40.70
2023-01-07T09:18:33.733Z,39.20
2023-01-07T09:23:41.593Z,36.70
2023-01-07T09:28:48.935Z,32.10
2023-01-07T09:33:55.786Z,32.20
2023-01-07T09:39:02.688Z,35.10
2023-01-07T09:44:25.085Z,34.20
2023-01-07T09:49:33.530Z,34.10
2023-01-07T09:54:42.145Z,33.30
2023-01-07T09:59:49.058Z,28.30
2023-01-07T10:05:07.775Z,25.40
2023-01-07T10:10:19.435Z,24.40
2023-01-07T10:15:47.479Z,24.80
2023-01-07T10:21:00.705Z,21.10
2023-01-07T10:26:14.979Z,25.60
2023-01-07T10:31:24.770Z,20.90
2023-01-07T10:36:38.420Z,21.60
2023-01-07T10:41:57.562Z,22.40
2023-01-07T10:47:16.744Z,18.90
2023-01-07T10:52:39.329Z,20.90
2023-01-07T10:57:48.816Z,24.20
2023-01-07T11:02:59.166Z,27.90
2023-01-07T11:08:09.028Z,21.00
2023-01-07T11:13:20.268Z,19.90
2023-01-07T11:18:34.393Z,21.10
2023-01-07T11:23:44.208Z,19.30
2023-01-07T11:28:55.363Z,16.50
2023-01-07T11:34:04.685Z,18.30
2023-01-07T11:39:22.571Z,16.50
2023-01-07T11:44:29.788Z,17.10
2023-01-07T11:49:45.444Z,16.30
2023-01-07T11:54:54.867Z,14.40
2023-01-07T12:00:19.020Z,13.30
2023-01-07T12:05:32.082Z,15.20
2023-01-07T12:10:45.829Z,13.50
2023-01-07T12:16:06.809Z,13.50
2023-01-07T12:21:52.683Z,22.20
2023-01-07T12:27:42.236Z,19.80
2023-01-07T12:33:10.775Z,17.10
2023-01-07T12:38:26.982Z,15.60
2023-01-07T12:43:42.114Z,15.30
2023-01-07T12:49:12.112Z,13.70
2023-01-07T12:54:37.093Z,21.30
2023-01-07T12:59:52.343Z,20.30
2023-01-07T13:05:12.897Z,15.50
2023-01-07T13:10:28.300Z,13.00
2023-01-07T13:15:57.732Z,11.00
2023-01-07T13:21:14.546Z,10.30
2023-01-07T13:26:59.492Z,11.10
2023-01-07T13:32:51.081Z,22.40
2023-01-07T13:38:19.218Z,22.40
2023-01-07T13:43:46.921Z,16.40
2023-01-07T13:50:46.373Z,19.50
2023-01-07T13:55:35.894Z,15.90
2023-01-07T14:01:02.488Z,10.50
2023-01-07T14:06:54.741Z,14.90
2023-01-07T14:13:04.310Z,15.10
2023-01-07T14:19:06.024Z,13.30
2023-01-07T14:25:02.855Z,12.50
2023-01-07T14:30:25.020Z,70.60
2023-01-07T14:36:31.869Z,35.00
2023-01-07T14:42:43.856Z,36.10
2023-01-07T14:47:58.467Z,20.60
2023-01-07T14:53:48.489Z,38.20
2023-01-07T14:59:30.659Z,109.20
2023-01-07T15:05:21.852Z,31.10
2023-01-07T15:10:49.972Z,17.80
2023-01-07T15:16:02.880Z,40.00
2023-01-07T15:21:23.831Z,36.60
2023-01-07T15:26:46.776Z,31.10
2023-01-07T15:32:05.743Z,33.90
2023-01-07T15:37:35.244Z,60.90
2023-01-07T15:43:15.388Z,29.10
2023-01-07T15:48:41.051Z,32.00
2023-01-07T15:54:26.554Z,37.00
2023-01-07T15:59:49.416Z,48.00
2023-01-07T16:05:23.530Z,40.40
2023-01-07T16:10:36.386Z,35.70
2023-01-07T16:16:01.772Z,70.30
2023-01-07T16:21:17.239Z,46.10
2023-01-07T16:26:31.989Z,42.10
2023-01-07T16:31:45.574Z,43.60
2023-01-07T16:36:57.729Z,34.70
2023-01-07T16:42:23.276Z,46.10
2023-01-07T16:48:17.948Z,43.50
2023-01-07T16:53:32.564Z,40.30
2023-01-07T16:58:49.492Z,36.40
2023-01-07T17:04:06.074Z,34.30
2023-01-07T17:09:25.958Z,48.50
2023-01-07T17:14:53.683Z,40.50
2023-01-07T17:20:23.830Z,41.70
2023-01-07T17:31:04.890Z,45.20
2023-01-07T17:36:18.463Z,43.10
2023-01-07T17:41:58.627Z,42.20
2023-01-07T17:47:13.012Z,41.80
2023-01-07T17:52:20.125Z,44.60
2023-01-07T17:57:27.206Z,50.80
2023-01-07T18:02:34.282Z,71.60
2023-01-07T18:07:43.560Z,90.30
2023-01-07T18:12:55.962Z,82.40
2023-01-07T18:18:05.011Z,56.30
2023-01-07T18:23:13.972Z,53.90
2023-01-07T18:28:21.807Z,55.20
2023-01-07T18:33:28.747Z,64.40
2023-01-07T18:38:47.032Z,98.40
2023-01-07T18:43:58.042Z,66.20
2023-01-07T18:49:09.471Z,49.00
2023-01-07T18:54:17.516Z,48.90
2023-01-07T18:59:27.324Z,49.70
2023-01-07T19:04:42.653Z,45.40
2023-01-07T19:09:52.565Z,48.00
2023-01-07T19:20:21.421Z,46.10
2023-01-07T19:25:46.680Z,46.00
2023-01-07T19:31:09.439Z,51.90
2023-01-07T19:36:19.369Z,53.60
2023-01-07T19:41:35.721Z,55.00
2023-01-07T19:46:45.932Z,63.60
2023-01-07T19:51:53.507Z,61.70
2023-01-07T19:57:05.177Z,62.70
2023-01-07T20:02:15.012Z,47.00
2023-01-07T20:07:24.864Z,61.40
2023-01-07T20:12:35.818Z,62.90
2023-01-07T20:17:46.536Z,63.80
2023-01-07T20:22:55.632Z,60.60
2023-01-07T20:28:02.768Z,63.70
2023-01-07T20:33:12.142Z,59.40
2023-01-07T20:38:22.014Z,62.40
2023-01-07T20:43:31.867Z,59.60
2023-01-07T20:48:46.963Z,56.50
2023-01-07T20:53:54.807Z,57.00
2023-01-07T20:59:05.101Z,59.20
2023-01-07T21:04:12.621Z,58.60
2023-01-07T21:09:24.496Z,62.90
2023-01-07T21:14:36.824Z,64.90
2023-01-07T21:19:49.603Z,63.40
2023-01-07T21:24:57.205Z,62.40
2023-01-07T21:30:08.815Z,58.20
2023-01-07T21:35:19.907Z,59.50
2023-01-07T21:45:39.302Z,63.40
2023-01-07T21:50:48.329Z,63.10
2023-01-07T21:55:55.489Z,60.00
2023-01-07T22:01:04.541Z,60.90
2023-01-07T22:06:22.163Z,69.50
2023-01-07T22:11:29.785Z,66.50
2023-01-07T22:16:49.310Z,56.10
2023-01-07T22:22:20.988Z,56.70
2023-01-07T22:27:28.027Z,57.90
2023-01-07T22:32:35.013Z,53.80
2023-01-07T22:37:43.425Z,58.00
2023-01-07T22:42:56.241Z,51.10
2023-01-07T22:48:03.721Z,53.30
2023-01-07T22:53:12.752Z,53.40
2023-01-07T22:58:20.799Z,51.90
2023-01-07T23:03:28.198Z,49.60
2023-01-07T23:08:35.524Z,50.80
2023-01-07T23:13:43.194Z,55.90
2023-01-07T23:18:52.600Z,55.50
2023-01-07T23:24:01.350Z,54.40
2023-01-07T23:29:08.811Z,107.90
2023-01-07T23:34:16.402Z,68.50
2023-01-07T23:39:23.734Z,67.00
2023-01-07T23:44:30.747Z,66.60
2023-01-07T23:49:38.070Z,65.70
2023-01-07T23:54:45.480Z,62.00
2023-01-07T23:59:55.129Z,65.20
